Continental, Arizona
Current Conditions -  °F | °C
As of 4:53 AM on Saturday 22 Nov 2014 (Local Time) from KTUS Reporting Station
Clear Clear  
Wind Chill: 40°   Ceiling: Unl
Heat Index: 44°   Visibility: 10mi
Dew Point: 33°   Wind: 7mph
Humidity: 65%   Direction: 120°ESE
Pressure: 30.06"   Gusts: NA
Location:  31.9776°N, 110.921°W
Report Text: KTUS 221153Z 12006KT 10SM CLR 07/01 A3006 RMK AO2 SLP158 T00670006 10111 20067 51007
Loading
Personal Weather Stations






























Interactive Weather Map New forecast layout! Learn more

10-Day Weather Forecast

Advertisements
Track Severe Weather on mobile